Allenspark, Colorado
Current Conditions -  °F | °C
As of 3:16 PM on Thursday 23 Oct 2014 (Local Time) from KBDU Reporting Station
Clear Clear  
Wind Chill: 22°   Ceiling: Unl
Heat Index: 22°   Visibility: 10mi
Dew Point:   Wind: 5mph
Humidity: 23%   Direction: 260°W
Pressure: 30.09"   Gusts: NA
Location:  40.19°N, 105.53°W
Report Text: KBDU 232116Z AUTO 26004KT 10SM CLR 22/00 A3009 RMK AO2
Loading
Personal Weather Stations






























Interactive Weather Map
Tropical Storm Tracking
New forecast layout! Learn more

10-Day Weather Forecast

Advertisements
Track Severe Weather on mobile